Time;durP1;ratioP1;P1;durP2;ratioP2;P2;SDS_P1;SDS_P2;PMS_P1;PMS_P2;Temp;Humidity;BMP_temperature;BMP_pressure;BME280_temperature;BME280_humidity;BME280_pressure;Samples;Min_cycle;Max_cycle;Signal;HPM_P1;HPM_P2
2021/01/06 00:00:14;801002.00;2.67;1382.87;0.00;0.00;0.62;;;;;24.70;38.60;;;;;;2250171;61;6009;-72
2021/01/06 00:02:41;700215.00;2.33;1207.61;0.00;0.00;0.62;;;;;24.70;38.70;;;;;;2252942;61;4114;-73
2021/01/06 00:05:17;773944.00;2.58;1335.72;0.00;0.00;0.62;;;;;24.60;38.80;;;;;;2252323;61;5061;-72
2021/01/06 00:07:45;777337.00;2.59;1341.63;0.00;0.00;0.62;;;;;24.50;38.80;;;;;;2252271;61;5800;-71
2021/01/06 00:10:14;824345.00;2.75;1423.61;0.00;0.00;0.62;;;;;24.50;38.80;;;;;;2249671;61;3992;-72
2021/01/06 00:12:41;836196.00;2.79;1444.32;0.00;0.00;0.62;;;;;24.40;38.90;;;;;;2248708;61;6122;-72
2021/01/06 00:15:25;746629.00;2.49;1288.20;0.00;0.00;0.62;;;;;24.40;39.00;;;;;;2251891;61;5585;-74
2021/01/06 00:17:51;682041.00;2.27;1176.11;0.00;0.00;0.62;;;;;24.30;39.10;;;;;;2251534;61;5932;-74
2021/01/06 00:20:20;820196.00;2.73;1416.37;0.00;0.00;0.62;;;;;24.30;39.10;;;;;;2245692;61;6388;-70
2021/01/06 00:22:47;774039.00;2.58;1335.88;0.00;0.00;0.62;;;;;24.30;39.20;;;;;;2252595;61;4228;-71
2021/01/06 00:25:22;790650.00;2.64;1364.82;0.00;0.00;0.62;;;;;24.30;39.10;;;;;;2248775;61;5911;-71
2021/01/06 00:27:52;776235.00;2.59;1339.71;0.00;0.00;0.62;;;;;24.20;39.30;;;;;;2255515;61;7865;-71
2021/01/06 00:30:38;727695.00;2.43;1255.30;0.00;0.00;0.62;;;;;24.20;39.30;;;;;;2249872;61;6981;-71
2021/01/06 00:33:07;778936.00;2.60;1344.41;0.00;0.00;0.62;;;;;24.20;39.30;;;;;;2255079;61;6117;-71
2021/01/06 00:35:33;742332.00;2.47;1280.73;0.00;0.00;0.62;;;;;24.10;39.30;;;;;;2251773;61;3049;-71
2021/01/06 00:38:00;706425.00;2.35;1218.38;0.00;0.00;0.62;;;;;24.10;39.40;;;;;;2249041;61;5848;-77
2021/01/06 00:40:30;809583.00;2.70;1397.84;0.00;0.00;0.62;;;;;24.10;39.40;;;;;;2249444;61;4445;-76
2021/01/06 00:42:58;1135830.00;3.79;1974.62;170368.00;0.57;294.90;;;;;24.10;39.30;;;;;;2254438;61;5963;-71
2021/01/06 00:45:33;816451.00;2.72;1409.83;0.00;0.00;0.62;;;;;24.10;39.40;;;;;;2255650;61;3576;-73
2021/01/06 00:48:00;721860.00;2.41;1245.17;0.00;0.00;0.62;;;;;24.10;39.30;;;;;;2249039;61;5914;-72
2021/01/06 00:50:28;742783.00;2.48;1281.51;0.00;0.00;0.62;;;;;24.10;39.40;;;;;;2247522;61;7105;-71
2021/01/06 00:52:59;796188.00;2.65;1374.48;0.00;0.00;0.62;;;;;24.10;40.00;;;;;;2247757;61;6569;-71
2021/01/06 00:55:26;773181.00;2.58;1334.39;0.00;0.00;0.62;;;;;24.00;39.30;;;;;;2251385;61;5908;-71
2021/01/06 00:57:52;740165.00;2.47;1276.96;0.00;0.00;0.62;;;;;24.00;39.50;;;;;;2245270;61;3496;-72
2021/01/06 01:00:20;822892.00;2.74;1421.08;0.00;0.00;0.62;;;;;24.00;39.60;;;;;;2252678;61;6480;-71
2021/01/06 01:02:51;780695.00;2.60;1347.48;0.00;0.00;0.62;;;;;23.90;39.60;;;;;;2251672;61;7591;-72
2021/01/06 01:05:23;791610.00;2.64;1366.50;0.00;0.00;0.62;;;;;24.00;39.60;;;;;;2255312;61;4690;-73
2021/01/06 01:07:50;834971.00;2.78;1442.18;0.00;0.00;0.62;;;;;23.90;39.60;;;;;;2252416;61;4162;-73
2021/01/06 01:10:25;810302.00;2.70;1399.10;0.00;0.00;0.62;;;;;23.90;39.60;;;;;;2249313;61;5983;-74
2021/01/06 01:12:52;795791.00;2.65;1373.78;0.00;0.00;0.62;;;;;23.80;39.70;;;;;;2254764;61;6224;-75
2021/01/06 01:15:27;816901.00;2.72;1410.62;0.00;0.00;0.62;;;;;23.90;39.80;;;;;;2246371;61;5072;-72
2021/01/06 01:17:54;827873.00;2.76;1429.78;0.00;0.00;0.62;;;;;23.90;39.60;;;;;;2251393;61;6243;-77
2021/01/06 01:20:21;779315.00;2.60;1345.07;0.00;0.00;0.62;;;;;23.90;39.60;;;;;;2251407;61;6292;-76
2021/01/06 01:22:48;846419.00;2.82;1462.20;0.00;0.00;0.62;;;;;23.90;39.70;;;;;;2252336;61;5956;-70
2021/01/06 01:25:26;812269.00;2.71;1402.53;0.00;0.00;0.62;;;;;23.90;39.70;;;;;;2251598;61;6327;-73
2021/01/06 01:27:54;859897.00;2.87;1485.79;0.00;0.00;0.62;;;;;23.80;39.80;;;;;;2251511;61;7452;-73
2021/01/06 01:30:24;839289.00;2.80;1449.73;0.00;0.00;0.62;;;;;23.80;39.60;;;;;;2251880;61;6151;-73
2021/01/06 01:32:54;830425.00;2.77;1434.24;0.00;0.00;0.62;;;;;23.80;39.70;;;;;;2255147;61;3592;-71
2021/01/06 01:35:27;808336.00;2.69;1395.67;0.00;0.00;0.62;;;;;23.80;39.80;;;;;;2249148;61;6187;-72
2021/01/06 01:37:55;761102.00;2.54;1313.37;0.00;0.00;0.62;;;;;23.80;40.30;;;;;;2250927;61;5893;-72
2021/01/06 01:40:25;860281.00;2.87;1486.46;0.00;0.00;0.62;;;;;23.80;39.80;;;;;;2253085;61;6192;-76
2021/01/06 01:42:59;852540.00;2.84;1472.91;0.00;0.00;0.62;;;;;23.80;39.80;;;;;;2250948;61;5887;-74
2021/01/06 01:45:52;868072.00;2.89;1500.11;0.00;0.00;0.62;;;;;23.70;39.70;;;;;;2255675;61;4523;-71
2021/01/06 01:48:51;900664.00;3.00;1557.29;0.00;0.00;0.62;;;;;23.70;39.80;;;;;;2245204;61;5668;-73
2021/01/06 01:51:44;775585.00;2.59;1338.58;0.00;0.00;0.62;;;;;23.70;39.80;;;;;;2252215;61;5946;-72
2021/01/06 01:54:13;873746.00;2.91;1510.06;0.00;0.00;0.62;;;;;23.80;39.80;;;;;;2250503;61;5924;-73
2021/01/06 01:57:04;824488.00;2.75;1423.86;0.00;0.00;0.62;;;;;23.70;39.80;;;;;;2248292;61;6014;-72
2021/01/06 01:59:52;828262.00;2.76;1430.46;0.00;0.00;0.62;;;;;23.70;39.80;;;;;;2253178;61;5924;-71
2021/01/06 02:02:39;838513.00;2.80;1448.38;0.00;0.00;0.62;;;;;23.70;39.90;;;;;;2251713;61;7725;-71
2021/01/06 02:05:26;801918.00;2.67;1384.47;0.00;0.00;0.62;;;;;23.60;39.80;;;;;;2249744;61;6080;-77
2021/01/06 02:08:11;833154.00;2.78;1439.01;0.00;0.00;0.62;;;;;23.60;39.90;;;;;;2249347;61;5344;-72
2021/01/06 02:10:49;742070.00;2.47;1280.27;0.00;0.00;0.62;;;;;23.60;39.90;;;;;;2249780;61;6124;-71
2021/01/06 02:13:34;851863.00;2.84;1471.73;0.00;0.00;0.62;;;;;23.70;40.00;;;;;;2251831;61;6052;-77
2021/01/06 02:16:22;765273.00;2.55;1320.63;0.00;0.00;0.62;;;;;23.70;39.90;;;;;;2250789;61;5849;-72
2021/01/06 02:18:49;807250.00;2.69;1393.77;0.00;0.00;0.62;;;;;23.60;39.90;;;;;;2251342;61;9011;-72
2021/01/06 02:21:19;117870752.00;392.90;66336312.00;0.00;0.00;0.62;;;;;23.60;39.90;;;;;;2248675;61;5746;-71
2021/01/06 02:23:52;764892.00;2.55;1319.96;0.00;0.00;0.62;;;;;23.60;39.90;;;;;;2253708;61;8513;-74
2021/01/06 02:26:26;828923.00;2.76;1431.61;0.00;0.00;0.62;;;;;23.70;39.90;;;;;;2251649;61;6075;-72
2021/01/06 02:28:54;817739.00;2.73;1412.08;0.00;0.00;0.62;;;;;23.70;39.90;;;;;;2251731;61;5863;-72
2021/01/06 02:31:20;861991.00;2.87;1489.46;0.00;0.00;0.62;;;;;23.60;39.90;;;;;;2244905;61;8158;-74
2021/01/06 02:33:49;823711.00;2.75;1422.51;0.00;0.00;0.62;;;;;23.60;40.40;;;;;;2248161;61;5860;-71
2021/01/06 02:36:20;872944.00;2.91;1508.65;0.00;0.00;0.62;;;;;23.60;39.80;;;;;;2249710;61;6108;-72
2021/01/06 02:38:47;846845.00;2.82;1462.95;0.00;0.00;0.62;;;;;23.60;39.90;;;;;;2248438;61;6000;-71
2021/01/06 02:41:15;824246.00;2.75;1423.44;0.00;0.00;0.62;;;;;23.70;39.90;;;;;;2252703;61;6192;-73
2021/01/06 02:43:47;833349.00;2.78;1439.35;0.00;0.00;0.62;;;;;23.60;39.70;;;;;;2252338;61;4193;-72
2021/01/06 02:46:17;829215.00;2.76;1432.12;0.00;0.00;0.62;;;;;23.60;39.90;;;;;;2248399;61;7313;-72
2021/01/06 02:48:45;865915.00;2.89;1496.33;0.00;0.00;0.62;;;;;23.60;40.00;;;;;;2248843;61;4069;-71
2021/01/06 02:51:17;829619.00;2.77;1432.83;0.00;0.00;0.62;;;;;23.60;39.90;;;;;;2252578;61;6137;-71
2021/01/06 02:53:49;887561.00;2.96;1534.28;0.00;0.00;0.62;;;;;23.60;39.90;;;;;;2254962;61;7418;-73
2021/01/06 02:56:19;829965.00;2.77;1433.43;0.00;0.00;0.62;;;;;23.60;39.90;;;;;;2251616;61;5919;-71
2021/01/06 02:58:47;859734.00;2.87;1485.51;0.00;0.00;0.62;;;;;23.60;39.90;;;;;;2252082;61;4939;-71
2021/01/06 03:01:19;874175.00;2.91;1510.81;0.00;0.00;0.62;;;;;23.60;39.90;;;;;;2251801;61;4251;-74
2021/01/06 03:03:51;781690.00;2.61;1349.21;0.00;0.00;0.62;;;;;23.60;39.90;;;;;;2256918;61;4019;-71
2021/01/06 03:06:30;780142.00;2.60;1346.51;0.00;0.00;0.62;;;;;23.60;39.80;;;;;;2240698;61;5114;-72
2021/01/06 03:08:57;787207.00;2.62;1358.82;0.00;0.00;0.62;;;;;23.60;39.80;;;;;;2251025;61;6200;-71
2021/01/06 03:11:27;801361.00;2.67;1383.50;0.00;0.00;0.62;;;;;23.60;39.90;;;;;;2247663;61;5748;-72
2021/01/06 03:13:54;846868.00;2.82;1462.99;0.00;0.00;0.62;;;;;23.60;40.00;;;;;;2253304;61;4440;-74
2021/01/06 03:16:20;805040.00;2.68;1389.91;0.00;0.00;0.62;;;;;23.60;39.90;;;;;;2243914;61;4744;-74
2021/01/06 03:18:48;839994.00;2.80;1450.96;0.00;0.00;0.62;;;;;23.60;39.90;;;;;;2248246;61;6145;-72
2021/01/06 03:21:16;848457.00;2.83;1465.77;0.00;0.00;0.62;;;;;23.50;39.90;;;;;;2244661;61;7574;-76
2021/01/06 03:23:52;874058.00;2.91;1510.60;0.00;0.00;0.62;;;;;23.60;39.90;;;;;;2250745;61;6048;-73
2021/01/06 03:26:23;829566.00;2.77;1432.74;0.00;0.00;0.62;;;;;23.60;40.40;;;;;;2252227;61;6221;-75
2021/01/06 03:28:51;738971.00;2.46;1274.89;0.00;0.00;0.62;;;;;23.60;40.10;;;;;;2252531;61;6029;-71
2021/01/06 03:31:36;888625.00;2.96;1536.15;0.00;0.00;0.62;;;;;23.50;39.80;;;;;;2253883;61;7553;-71
2021/01/06 03:34:12;830458.00;2.77;1434.30;0.00;0.00;0.62;;;;;23.50;39.80;;;;;;2252157;61;4858;-71
2021/01/06 03:36:44;854471.00;2.85;1476.29;0.00;0.00;0.62;;;;;23.50;39.90;;;;;;2253375;61;5777;-73
2021/01/06 03:39:23;894121.00;2.98;1545.80;0.00;0.00;0.62;;;;;23.50;39.80;;;;;;2255170;61;4771;-77
2021/01/06 03:41:50;886428.00;2.95;1532.30;0.00;0.00;0.62;;;;;23.50;39.80;;;;;;2251636;61;5910;-71
2021/01/06 03:44:17;833908.00;2.78;1440.32;0.00;0.00;0.62;;;;;23.50;40.00;;;;;;2251865;61;6222;-72
2021/01/06 03:47:02;822553.00;2.74;1420.48;0.00;0.00;0.62;;;;;23.50;39.90;;;;;;2248789;61;5967;-71
2021/01/06 03:49:44;819037.00;2.73;1414.34;0.00;0.00;0.62;;;;;23.50;39.90;;;;;;2251256;61;4886;-72
2021/01/06 03:52:44;821891.00;2.74;1419.33;0.00;0.00;0.62;;;;;23.60;39.80;;;;;;2253070;61;6265;-71
2021/01/06 03:55:20;788922.00;2.63;1361.81;0.00;0.00;0.62;;;;;23.60;39.90;;;;;;2251510;61;6108;-72
2021/01/06 03:57:51;819850.00;2.73;1415.76;0.00;0.00;0.62;;;;;23.50;39.80;;;;;;2253270;61;6087;-72
2021/01/06 04:00:39;866388.00;2.89;1497.16;0.00;0.00;0.62;;;;;23.40;39.80;;;;;;2251780;61;6213;-73
2021/01/06 04:03:18;810963.00;2.70;1400.25;0.00;0.00;0.62;;;;;23.50;39.90;;;;;;2253046;61;5849;-72
2021/01/06 04:05:48;840311.00;2.80;1451.52;0.00;0.00;0.62;;;;;23.50;39.90;;;;;;2256058;61;4959;-73
2021/01/06 04:08:25;803768.00;2.68;1387.70;0.00;0.00;0.62;;;;;23.50;39.90;;;;;;2252503;61;4213;-71
2021/01/06 04:10:56;771470.00;2.57;1331.41;0.00;0.00;0.62;;;;;23.40;39.90;;;;;;2253001;61;6411;-76
2021/01/06 04:13:23;850523.00;2.84;1469.38;0.00;0.00;0.62;;;;;23.40;39.90;;;;;;2248601;61;6111;-71
2021/01/06 04:15:49;793745.00;2.65;1370.22;0.00;0.00;0.62;;;;;23.50;39.80;;;;;;2247992;61;7492;-71
2021/01/06 04:18:16;831430.00;2.77;1435.99;0.00;0.00;0.62;;;;;23.50;39.90;;;;;;2252913;61;5936;-72
2021/01/06 04:20:43;786208.00;2.62;1357.08;0.00;0.00;0.62;;;;;23.50;40.10;;;;;;2246286;61;5974;-73
2021/01/06 04:23:13;808831.00;2.70;1396.53;0.00;0.00;0.62;;;;;23.40;39.90;;;;;;2249272;61;4257;-71
2021/01/06 04:25:45;851051.00;2.84;1470.31;0.00;0.00;0.62;;;;;23.40;39.90;;;;;;2252175;61;6161;-71
2021/01/06 04:28:18;877084.00;2.92;1515.91;0.00;0.00;0.62;;;;;23.40;40.00;;;;;;2251152;61;5861;-71
2021/01/06 04:30:49;854841.00;2.85;1476.94;0.00;0.00;0.62;;;;;23.40;39.80;;;;;;2251636;61;7691;-71
2021/01/06 04:33:25;883308.00;2.94;1526.82;0.00;0.00;0.62;;;;;23.40;39.90;;;;;;2256170;61;4522;-71
2021/01/06 04:35:54;878799.00;2.93;1518.91;0.00;0.00;0.62;;;;;23.40;39.80;;;;;;2252747;61;4897;-70
2021/01/06 04:38:30;838481.00;2.79;1448.32;0.00;0.00;0.62;;;;;23.40;39.80;;;;;;2252469;61;4840;-71
2021/01/06 04:41:00;810582.00;2.70;1399.58;0.00;0.00;0.62;;;;;23.40;39.70;;;;;;2251963;61;4228;-76
2021/01/06 04:43:43;903561.00;3.01;1562.38;0.00;0.00;0.62;;;;;23.40;39.80;;;;;;2253050;61;4200;-71
2021/01/06 04:46:35;801787.00;2.67;1384.24;0.00;0.00;0.62;;;;;23.40;39.80;;;;;;2251599;61;5937;-76
2021/01/06 04:49:25;871692.00;2.91;1506.46;0.00;0.00;0.62;;;;;23.30;39.80;;;;;;2253352;61;6233;-72
2021/01/06 04:51:59;855517.00;2.85;1478.12;0.00;0.00;0.62;;;;;23.40;39.90;;;;;;2252367;61;6146;-73
2021/01/06 04:54:53;881677.00;2.94;1523.96;0.00;0.00;0.62;;;;;23.40;39.80;;;;;;2256636;61;5832;-71
2021/01/06 04:58:03;881649.00;2.94;1523.91;0.00;0.00;0.62;;;;;23.40;39.60;;;;;;2256205;61;6016;-71
2021/01/06 05:01:16;901657.00;3.01;1559.03;0.00;0.00;0.62;;;;;23.40;39.70;;;;;;2254782;61;5892;-71
2021/01/06 05:03:55;827664.00;2.76;1429.41;0.00;0.00;0.62;;;;;23.40;39.80;;;;;;2251148;61;6101;-72
2021/01/06 05:06:40;873711.00;2.91;1509.99;0.00;0.00;0.62;;;;;23.40;39.90;;;;;;2251653;61;4905;-71
2021/01/06 05:09:26;822152.00;2.74;1419.78;0.00;0.00;0.62;;;;;23.40;40.20;;;;;;2254069;61;6230;-74
2021/01/06 05:12:12;832937.00;2.78;1438.63;0.00;0.00;0.62;;;;;23.30;39.70;;;;;;2252291;61;7764;-71
2021/01/06 05:15:05;855695.00;2.85;1478.44;0.00;0.00;0.62;;;;;23.30;39.90;;;;;;2253638;61;6314;-72
2021/01/06 05:17:32;893383.00;2.98;1544.50;0.00;0.00;0.62;;;;;23.30;39.90;;;;;;2251311;61;5836;-73
2021/01/06 05:19:58;895205.00;2.98;1547.70;0.00;0.00;0.62;;;;;23.30;40.00;;;;;;2245610;61;6173;-74
2021/01/06 05:22:28;915891.00;3.05;1584.05;0.00;0.00;0.62;;;;;23.40;39.80;;;;;;2256522;61;6140;-72
2021/01/06 05:24:54;970920.00;3.24;1681.03;0.00;0.00;0.62;;;;;23.40;39.80;;;;;;2248928;61;6180;-75
2021/01/06 05:27:29;885141.00;2.95;1530.04;0.00;0.00;0.62;;;;;23.30;39.80;;;;;;2248585;61;4291;-73
2021/01/06 05:30:01;927419.00;3.09;1604.33;0.00;0.00;0.62;;;;;23.40;39.70;;;;;;2251832;61;6117;-71
2021/01/06 05:32:39;914140.00;3.05;1580.97;0.00;0.00;0.62;;;;;23.40;39.70;;;;;;2252963;61;4810;-71
2021/01/06 05:35:16;126224768.00;420.75;81479800.00;0.00;0.00;0.62;;;;;23.40;39.80;;;;;;2250713;61;7624;-72
2021/01/06 05:37:52;899581.00;3.00;1555.38;0.00;0.00;0.62;;;;;23.30;39.90;;;;;;2254979;61;8536;-76
2021/01/06 05:40:24;884998.00;2.95;1529.79;0.00;0.00;0.62;;;;;23.40;39.80;;;;;;2255121;61;5874;-73
2021/01/06 05:43:01;910699.00;3.04;1574.92;0.00;0.00;0.62;;;;;23.30;39.80;;;;;;2251782;61;6239;-71
2021/01/06 05:45:45;873312.00;2.91;1509.29;0.00;0.00;0.62;;;;;23.40;39.80;;;;;;2251399;61;5017;-71
2021/01/06 05:48:22;968315.00;3.23;1676.43;0.00;0.00;0.62;;;;;23.30;39.80;;;;;;2252149;61;8044;-72
2021/01/06 05:51:02;871572.00;2.91;1506.24;0.00;0.00;0.62;;;;;23.40;39.90;;;;;;2251094;61;4204;-76
2021/01/06 05:53:43;907691.00;3.03;1569.63;0.00;0.00;0.62;;;;;23.40;39.80;;;;;;2250803;61;4156;-77
2021/01/06 05:56:34;895576.00;2.99;1548.35;0.00;0.00;0.62;;;;;23.40;39.70;;;;;;2252429;61;4876;-72
2021/01/06 05:59:28;907150.00;3.02;1568.68;0.00;0.00;0.62;;;;;23.60;39.70;;;;;;2252040;61;7360;-73
2021/01/06 06:02:04;850673.00;2.84;1469.65;0.00;0.00;0.62;;;;;23.70;39.50;;;;;;2250304;61;6082;-71
2021/01/06 06:05:01;923434.00;3.08;1597.32;0.00;0.00;0.62;;;;;23.80;39.30;;;;;;2254136;61;6126;-75
2021/01/06 06:08:17;829441.00;2.76;1432.52;0.00;0.00;0.62;;;;;24.00;39.20;;;;;;2251205;61;7595;-72
2021/01/06 06:11:11;821454.00;2.74;1418.57;0.00;0.00;0.62;;;;;24.20;39.00;;;;;;2240757;61;4416;-73
2021/01/06 06:13:49;810107.00;2.70;1398.76;0.00;0.00;0.62;;;;;24.30;38.90;;;;;;2255103;61;4964;-72
2021/01/06 06:16:34;807041.00;2.69;1393.41;0.00;0.00;0.62;;;;;24.50;38.80;;;;;;2255668;61;6136;-71
2021/01/06 06:19:33;765939.00;2.55;1321.78;0.00;0.00;0.62;;;;;24.60;38.60;;;;;;2251375;61;6229;-73
2021/01/06 06:22:15;717504.00;2.39;1237.61;0.00;0.00;0.62;;;;;24.70;38.60;;;;;;2252139;61;5101;-73
2021/01/06 06:24:58;775826.00;2.59;1339.00;0.00;0.00;0.62;;;;;24.80;38.40;;;;;;2250867;61;7936;-71
2021/01/06 06:27:45;745283.00;2.48;1285.86;0.00;0.00;0.62;;;;;24.90;37.00;;;;;;2251513;61;4903;-71
2021/01/06 06:30:11;839351.00;2.80;1449.84;0.00;0.00;0.62;;;;;25.00;36.70;;;;;;2251465;61;5792;-72
2021/01/06 06:32:40;786925.00;2.62;1358.33;0.00;0.00;0.62;;;;;25.00;36.20;;;;;;2252694;61;6033;-76
2021/01/06 06:35:17;804704.00;2.68;1389.33;0.00;0.00;0.62;;;;;25.20;36.10;;;;;;2251722;61;5785;-72
2021/01/06 06:38:05;814595.00;2.72;1406.59;0.00;0.00;0.62;;;;;25.20;36.00;;;;;;2254600;61;4454;-71
2021/01/06 06:41:08;807502.00;2.69;1394.21;0.00;0.00;0.62;;;;;25.30;35.90;;;;;;2254592;61;4207;-75
2021/01/06 06:43:41;871368.00;2.90;1505.89;0.00;0.00;0.62;;;;;25.40;35.90;;;;;;2247858;61;6382;-72
2021/01/06 06:46:46;772743.00;2.58;1333.63;0.00;0.00;0.62;;;;;25.50;35.80;;;;;;2251193;61;7557;-71
2021/01/06 06:49:24;766123.00;2.55;1322.10;0.00;0.00;0.62;;;;;25.50;35.90;;;;;;2251833;61;6234;-76
2021/01/06 06:52:06;824516.00;2.75;1423.91;0.00;0.00;0.62;;;;;25.50;35.90;;;;;;2255119;61;4947;-77
2021/01/06 06:55:04;743505.00;2.48;1282.77;0.00;0.00;0.62;;;;;25.50;35.60;;;;;;2250342;61;5689;-78
2021/01/06 06:58:15;711185.00;2.37;1226.64;0.00;0.00;0.62;;;;;25.50;35.20;;;;;;2255735;61;5563;-72
2021/01/06 07:00:41;728953.00;2.43;1257.48;0.00;0.00;0.62;;;;;25.50;35.60;;;;;;2238044;61;6125;-71
2021/01/06 07:03:10;747590.00;2.49;1289.87;0.00;0.00;0.62;;;;;25.50;35.60;;;;;;2251591;61;5954;-71
2021/01/06 07:05:48;731761.00;2.44;1262.36;0.00;0.00;0.62;;;;;25.50;35.50;;;;;;2252031;61;6048;-78
2021/01/06 07:08:27;738034.00;2.46;1273.26;0.00;0.00;0.62;;;;;25.50;35.60;;;;;;2252262;61;4065;-73
2021/01/06 07:11:01;789387.00;2.63;1362.62;0.00;0.00;0.62;;;;;25.50;35.50;;;;;;2252535;61;4374;-71
2021/01/06 07:13:30;707209.00;2.36;1219.74;0.00;0.00;0.62;;;;;25.60;35.40;;;;;;2252523;61;4552;-72
2021/01/06 07:16:16;719434.00;2.40;1240.96;0.00;0.00;0.62;;;;;25.70;35.40;;;;;;2252013;61;4260;-73
2021/01/06 07:18:48;725749.00;2.42;1251.92;0.00;0.00;0.62;;;;;25.70;35.50;;;;;;2251987;61;4117;-72
2021/01/06 07:21:28;751887.00;2.51;1297.34;0.00;0.00;0.62;;;;;25.70;35.40;;;;;;2252325;61;6059;-72
2021/01/06 07:24:16;780327.00;2.60;1346.84;0.00;0.00;0.62;;;;;25.70;35.30;;;;;;2257590;61;4149;-74
2021/01/06 07:26:51;752269.00;2.51;1298.00;0.00;0.00;0.62;;;;;25.70;35.20;;;;;;2256887;61;5787;-73
2021/01/06 07:29:20;789844.00;2.63;1363.42;0.00;0.00;0.62;;;;;25.80;35.20;;;;;;2253327;61;4850;-72
2021/01/06 07:32:10;835135.00;2.78;1442.47;0.00;0.00;0.62;;;;;25.80;35.20;;;;;;2252340;61;6007;-73
2021/01/06 07:34:52;803277.00;2.68;1386.84;0.00;0.00;0.62;;;;;25.80;35.20;;;;;;2252460;61;5318;-75
2021/01/06 07:38:00;857270.00;2.86;1481.19;0.00;0.00;0.62;;;;;25.80;35.20;;;;;;2248617;61;6440;-73
2021/01/06 07:40:32;797559.00;2.66;1376.87;0.00;0.00;0.62;;;;;25.80;35.10;;;;;;2236515;61;7498;-75
2021/01/06 07:43:07;790736.00;2.64;1364.97;0.00;0.00;0.62;;;;;25.80;35.10;;;;;;2249828;61;6049;-77
2021/01/06 07:45:39;794106.00;2.65;1370.85;0.00;0.00;0.62;;;;;25.90;35.00;;;;;;2253100;61;3995;-75
2021/01/06 07:48:34;809885.00;2.70;1398.37;0.00;0.00;0.62;;;;;25.90;35.10;;;;;;2255295;61;4369;-76
2021/01/06 07:51:16;805419.00;2.68;1390.58;0.00;0.00;0.62;;;;;25.90;35.10;;;;;;2251838;61;5923;-77
2021/01/06 07:54:06;821022.00;2.74;1417.81;0.00;0.00;0.62;;;;;25.90;34.90;;;;;;2252538;61;3865;-73
2021/01/06 07:56:55;766758.00;2.56;1323.21;0.00;0.00;0.62;;;;;25.90;34.80;;;;;;2252878;61;6585;-75
2021/01/06 07:59:29;853862.00;2.85;1475.23;0.00;0.00;0.62;;;;;25.90;35.00;;;;;;2252796;61;4350;-74
2021/01/06 08:02:10;911612.00;3.04;1576.52;0.00;0.00;0.62;;;;;26.00;34.80;;;;;;2252898;61;6105;-72
2021/01/06 08:04:55;883140.00;2.94;1526.53;0.00;0.00;0.62;;;;;25.90;34.80;;;;;;2256580;61;5718;-75
2021/01/06 08:07:23;820444.00;2.73;1416.80;0.00;0.00;0.62;;;;;26.00;34.80;;;;;;2253481;61;4789;-72
2021/01/06 08:09:51;848576.00;2.83;1465.98;0.00;0.00;0.62;;;;;26.00;34.70;;;;;;2253764;61;6368;-72
2021/01/06 08:12:25;859909.00;2.87;1485.81;0.00;0.00;0.62;;;;;26.00;34.60;;;;;;2251954;61;5406;-75
2021/01/06 08:15:19;853073.00;2.84;1473.85;0.00;0.00;0.62;;;;;26.00;34.60;;;;;;2253048;61;4206;-73
2021/01/06 08:18:00;148979456.00;496.60;134033656.00;0.00;0.00;0.62;;;;;26.00;34.50;;;;;;2256702;61;4228;-72
2021/01/06 08:20:34;899341.00;3.00;1554.96;0.00;0.00;0.62;;;;;26.00;34.50;;;;;;2255207;61;5957;-74
2021/01/06 08:23:19;885840.00;2.95;1531.26;0.00;0.00;0.62;;;;;26.10;34.60;;;;;;2251641;61;4913;-72
2021/01/06 08:26:17;905069.00;3.02;1565.02;0.00;0.00;0.62;;;;;26.10;34.50;;;;;;2257676;61;6069;-72
2021/01/06 08:28:47;941558.00;3.14;1629.23;0.00;0.00;0.62;;;;;26.10;34.40;;;;;;2250716;61;5443;-72
2021/01/06 08:31:17;909460.00;3.03;1572.74;0.00;0.00;0.62;;;;;26.10;34.30;;;;;;2253073;61;5985;-75
2021/01/06 08:33:53;932297.00;3.11;1612.92;0.00;0.00;0.62;;;;;26.10;34.40;;;;;;2253158;61;3786;-72
2021/01/06 08:36:29;972915.00;3.24;1684.56;0.00;0.00;0.62;;;;;26.10;34.30;;;;;;2253122;61;5874;-72
2021/01/06 08:39:18;929277.00;3.10;1607.60;0.00;0.00;0.62;;;;;26.10;34.40;;;;;;2257562;61;5989;-75
2021/01/06 08:41:47;886022.00;2.95;1531.58;0.00;0.00;0.62;;;;;26.10;34.60;;;;;;2252396;61;4240;-76
2021/01/06 08:44:42;914092.00;3.05;1580.88;0.00;0.00;0.62;;;;;26.00;34.50;;;;;;2252498;61;4322;-78
2021/01/06 08:47:12;875246.00;2.92;1512.68;0.00;0.00;0.62;;;;;26.00;34.50;;;;;;2254016;61;3987;-76
2021/01/06 08:49:44;950554.00;3.17;1645.09;0.00;0.00;0.62;;;;;26.00;34.40;;;;;;2253028;61;4934;-73
2021/01/06 08:52:17;941035.00;3.14;1628.31;0.00;0.00;0.62;;;;;26.00;34.50;;;;;;2256214;61;8095;-75
2021/01/06 08:55:18;851750.00;2.84;1471.53;0.00;0.00;0.62;;;;;26.00;34.50;;;;;;2252363;61;4885;-75
2021/01/06 08:57:44;958171.00;3.19;1658.53;0.00;0.00;0.62;;;;;26.00;34.50;;;;;;2252603;61;5862;-73
2021/01/06 09:00:23;989506.00;3.30;1713.89;0.00;0.00;0.62;;;;;26.00;34.30;;;;;;2252772;61;4269;-75
2021/01/06 09:03:00;903881.00;3.01;1562.94;0.00;0.00;0.62;;;;;26.00;34.70;;;;;;2252411;61;5867;-72
2021/01/06 09:06:00;127910272.00;426.37;84790888.00;0.00;0.00;0.62;;;;;26.00;34.30;;;;;;2253292;61;4237;-71
2021/01/06 09:08:31;931106.00;3.10;1610.82;0.00;0.00;0.62;;;;;26.00;34.40;;;;;;2252849;61;4964;-73
2021/01/06 09:11:01;957686.00;3.19;1657.67;0.00;0.00;0.62;;;;;26.10;34.50;;;;;;2256055;61;6076;-72
2021/01/06 09:13:38;867587.00;2.89;1499.26;0.00;0.00;0.62;;;;;26.10;34.40;;;;;;2251227;61;5939;-72
2021/01/06 09:16:28;831149.00;2.77;1435.50;0.00;0.00;0.62;;;;;26.10;34.30;;;;;;2252366;61;7862;-75
2021/01/06 09:19:04;813937.00;2.71;1405.44;0.00;0.00;0.62;;;;;26.10;34.50;;;;;;2252210;61;6161;-72
2021/01/06 09:21:33;786007.00;2.62;1356.73;0.00;0.00;0.62;;;;;26.10;34.50;;;;;;2252537;61;4304;-74
2021/01/06 09:24:16;863400.00;2.88;1491.93;0.00;0.00;0.62;;;;;26.10;34.50;;;;;;2252473;61;4238;-74
2021/01/06 09:26:49;955760.00;3.19;1654.27;0.00;0.00;0.62;;;;;26.20;34.60;;;;;;2252059;61;5964;-73
2021/01/06 09:29:17;910489.00;3.03;1574.55;0.00;0.00;0.62;;;;;26.20;34.70;;;;;;2251688;61;5975;-74
2021/01/06 09:31:58;869735.00;2.90;1503.03;0.00;0.00;0.62;;;;;26.20;34.60;;;;;;2251819;61;6140;-73
2021/01/06 09:34:30;921681.00;3.07;1594.23;0.00;0.00;0.62;;;;;26.30;34.60;;;;;;2251969;61;6286;-77
2021/01/06 09:36:58;886626.00;2.96;1532.64;0.00;0.00;0.62;;;;;26.30;34.80;;;;;;2252152;61;5881;-74
2021/01/06 09:39:28;876232.00;2.92;1514.41;0.00;0.00;0.62;;;;;26.30;34.70;;;;;;2252179;61;5923;-74
2021/01/06 09:41:58;808289.00;2.69;1395.58;0.00;0.00;0.62;;;;;26.30;34.70;;;;;;2251931;61;7807;-75
2021/01/06 09:44:24;897796.00;2.99;1552.25;0.00;0.00;0.62;;;;;26.30;34.70;;;;;;2252145;61;7591;-74
2021/01/06 09:47:06;948787.00;3.16;1641.97;0.00;0.00;0.62;;;;;26.30;34.90;;;;;;2246978;61;5962;-73
2021/01/06 09:49:43;939759.00;3.13;1626.06;0.00;0.00;0.62;;;;;26.40;35.40;;;;;;2252443;61;4205;-74
2021/01/06 09:52:28;1029548.00;3.43;1784.88;0.00;0.00;0.62;;;;;26.50;35.20;;;;;;2251455;61;8030;-74
2021/01/06 09:54:58;1100280.00;3.67;1910.92;0.00;0.00;0.62;;;;;26.50;35.10;;;;;;2252757;61;6182;-72
2021/01/06 09:57:26;1001639.00;3.34;1735.37;0.00;0.00;0.62;;;;;26.70;34.90;;;;;;2252886;61;4694;-77
2021/01/06 09:59:57;1112414.00;3.71;1932.64;0.00;0.00;0.62;;;;;26.70;34.50;;;;;;2249360;61;3522;-76
2021/01/06 10:02:27;1142504.00;3.81;1986.60;0.00;0.00;0.62;;;;;26.80;34.50;;;;;;2252789;61;4676;-75
2021/01/06 10:05:11;1138154.00;3.79;1978.79;0.00;0.00;0.62;;;;;26.90;34.50;;;;;;2251871;61;7246;-72
2021/01/06 10:07:55;1181361.00;3.94;2056.56;0.00;0.00;0.62;;;;;27.00;34.30;;;;;;2252501;61;8355;-72
2021/01/06 10:10:26;1240015.00;4.13;2162.74;0.00;0.00;0.62;;;;;27.00;34.10;;;;;;2252586;61;7652;-75
2021/01/06 10:13:10;1272452.00;4.24;2221.78;0.00;0.00;0.62;;;;;27.20;34.20;;;;;;2255602;61;4109;-74
2021/01/06 10:15:54;1257558.00;4.19;2194.64;0.00;0.00;0.62;;;;;27.20;34.00;;;;;;2255805;61;3291;-76
2021/01/06 10:18:42;1181720.00;3.94;2057.20;0.00;0.00;0.62;;;;;27.30;33.80;;;;;;2252121;61;5999;-72
2021/01/06 10:21:19;1045851.00;3.49;1813.85;0.00;0.00;0.62;;;;;27.40;33.50;;;;;;2252982;61;4292;-76
2021/01/06 10:23:55;1095878.00;3.65;1903.05;0.00;0.00;0.62;;;;;27.40;33.60;;;;;;2256810;61;7629;-72